createdAt,value
2023-04-16T00:00:48.642Z,9.09
2023-04-16T00:01:48.683Z,9.10
2023-04-16T00:02:48.471Z,9.12
2023-04-16T00:03:48.797Z,9.13
2023-04-16T00:04:48.682Z,9.16
2023-04-16T00:05:48.579Z,9.10
2023-04-16T00:06:48.600Z,9.16
2023-04-16T00:07:48.497Z,9.13
2023-04-16T00:08:48.476Z,9.15
2023-04-16T00:09:48.505Z,9.20
2023-04-16T00:10:48.424Z,9.18
2023-04-16T00:11:48.481Z,9.18
2023-04-16T00:12:48.392Z,9.12
2023-04-16T00:13:48.455Z,9.12
2023-04-16T00:14:48.440Z,9.20
2023-04-16T00:15:48.455Z,9.12
2023-04-16T00:16:48.513Z,9.10
2023-04-16T00:17:48.445Z,9.15
2023-04-16T00:18:48.413Z,9.13
2023-04-16T00:19:48.412Z,9.15
2023-04-16T00:20:48.244Z,9.20
2023-04-16T00:21:48.386Z,9.09
2023-04-16T00:22:48.355Z,9.10
2023-04-16T00:23:48.350Z,9.15
2023-04-16T00:24:48.408Z,9.12
2023-04-16T00:25:48.325Z,9.16
2023-04-16T00:26:48.314Z,9.15
2023-04-16T00:27:48.250Z,9.15
2023-04-16T00:28:48.283Z,9.13
2023-04-16T00:29:48.354Z,9.13
2023-04-16T00:30:48.355Z,9.15
2023-04-16T00:31:48.227Z,9.12
2023-04-16T00:32:48.275Z,9.15
2023-04-16T00:33:48.248Z,9.10
2023-04-16T00:34:48.240Z,9.12
2023-04-16T00:35:48.319Z,9.04
2023-04-16T00:36:48.212Z,9.12
2023-04-16T00:37:48.112Z,9.09
2023-04-16T00:38:48.074Z,9.09
2023-04-16T00:39:48.168Z,9.04
2023-04-16T00:40:48.114Z,9.04
2023-04-16T00:41:48.112Z,9.05
2023-04-16T00:42:48.142Z,9.02
2023-04-16T00:43:48.211Z,9.02
2023-04-16T00:44:48.115Z,9.01
2023-04-16T00:45:48.122Z,9.05
2023-04-16T00:46:48.118Z,8.99
2023-04-16T00:47:48.196Z,8.99
2023-04-16T00:48:48.043Z,9.04
2023-04-16T00:49:48.114Z,8.99
2023-04-16T00:50:48.024Z,9.02
2023-04-16T00:51:48.014Z,8.99
2023-04-16T00:52:47.925Z,9.01
2023-04-16T00:53:48.101Z,9.04
2023-04-16T00:54:48.033Z,8.99
2023-04-16T00:55:48.046Z,8.97
2023-04-16T00:56:48.061Z,8.97
2023-04-16T00:57:48.003Z,9.01
2023-04-16T00:58:48.008Z,8.99
2023-04-16T00:59:48.027Z,8.96
2023-04-16T01:00:48.039Z,9.01
2023-04-16T01:01:47.998Z,9.04
2023-04-16T01:02:48.119Z,9.01
2023-04-16T01:03:47.985Z,9.05
2023-04-16T01:04:47.913Z,8.96
2023-04-16T01:05:47.933Z,8.97
2023-04-16T01:06:48.007Z,9.04
2023-04-16T01:07:47.932Z,9.01
2023-04-16T01:08:47.882Z,9.04
2023-04-16T01:09:47.716Z,9.04
2023-04-16T01:10:47.956Z,8.99
2023-04-16T01:11:48.189Z,9.04
2023-04-16T01:12:47.961Z,9.05
2023-04-16T01:13:47.889Z,9.05
2023-04-16T01:14:47.871Z,9.05
2023-04-16T01:15:47.985Z,9.04
2023-04-16T01:16:47.864Z,9.09
2023-04-16T01:17:47.869Z,9.04
2023-04-16T01:18:47.928Z,9.04
2023-04-16T01:19:47.854Z,9.05
2023-04-16T01:20:47.772Z,9.06
2023-04-16T01:21:47.880Z,9.09
2023-04-16T01:22:47.823Z,9.01
2023-04-16T01:23:47.819Z,9.02
2023-04-16T01:24:47.683Z,8.97
2023-04-16T01:25:47.786Z,8.97
2023-04-16T01:26:47.546Z,9.02
2023-04-16T01:27:47.764Z,8.99
2023-04-16T01:28:47.657Z,8.93
2023-04-16T01:29:47.642Z,8.99
2023-04-16T01:30:47.630Z,8.94
2023-04-16T01:31:47.673Z,8.99
2023-04-16T01:32:47.881Z,8.97
2023-04-16T01:33:47.680Z,8.93
2023-04-16T01:34:47.634Z,8.97
2023-04-16T01:35:47.630Z,8.96
2023-04-16T01:36:47.610Z,8.97
2023-04-16T01:37:47.693Z,8.99
2023-04-16T01:38:47.550Z,8.94
2023-04-16T01:39:47.516Z,8.96
2023-04-16T01:40:47.480Z,8.96
2023-04-16T01:41:47.573Z,8.93
2023-04-16T01:42:47.634Z,8.96
2023-04-16T01:43:47.623Z,8.96
2023-04-16T01:44:47.543Z,8.94
2023-04-16T01:45:47.386Z,8.93
2023-04-16T01:46:47.500Z,8.91
2023-04-16T01:47:47.553Z,8.91
2023-04-16T01:48:47.489Z,8.88
2023-04-16T01:49:47.568Z,8.90
2023-04-16T01:50:47.374Z,8.88
2023-04-16T01:51:47.415Z,8.91
2023-04-16T01:52:47.425Z,8.86
2023-04-16T01:53:47.501Z,8.88
2023-04-16T01:54:47.371Z,8.93
2023-04-16T01:55:47.485Z,8.86
2023-04-16T01:56:47.318Z,8.93
2023-04-16T01:57:47.335Z,8.90
2023-04-16T01:58:47.335Z,8.87
2023-04-16T01:59:47.361Z,8.86
2023-04-16T02:00:47.405Z,8.88
2023-04-16T02:01:47.452Z,8.87
2023-04-16T02:02:47.425Z,8.88
2023-04-16T02:03:47.452Z,8.84
2023-04-16T02:04:47.419Z,8.87
2023-04-16T02:05:47.320Z,8.88
2023-04-16T02:06:47.324Z,8.88
2023-04-16T02:07:47.264Z,8.88
2023-04-16T02:08:47.290Z,8.91
2023-04-16T02:09:47.301Z,8.90
2023-04-16T02:10:47.261Z,8.94
2023-04-16T02:11:47.338Z,8.91
2023-04-16T02:12:47.201Z,8.90
2023-04-16T02:13:47.224Z,8.94
2023-04-16T02:14:47.228Z,8.91
2023-04-16T02:15:47.310Z,8.91
2023-04-16T02:16:47.198Z,8.88
2023-04-16T02:17:47.174Z,8.93
2023-04-16T02:18:47.158Z,8.90
2023-04-16T02:19:47.154Z,8.96
2023-04-16T02:20:47.148Z,8.88
2023-04-16T02:21:47.213Z,8.93
2023-04-16T02:22:47.154Z,8.91
2023-04-16T02:23:46.982Z,8.93
2023-04-16T02:24:47.138Z,8.93
2023-04-16T02:25:47.157Z,8.93
2023-04-16T02:26:47.238Z,9.01
2023-04-16T02:27:47.098Z,8.97
2023-04-16T02:28:47.092Z,8.94
2023-04-16T02:29:47.100Z,8.97
2023-04-16T02:30:47.109Z,8.94
2023-04-16T02:31:47.038Z,8.94
2023-04-16T02:32:47.194Z,8.94
2023-04-16T02:33:47.049Z,8.88
2023-04-16T02:34:46.979Z,8.97
2023-04-16T02:35:46.994Z,8.94
2023-04-16T02:36:47.070Z,8.94
2023-04-16T02:37:47.089Z,8.96
2023-04-16T02:38:47.028Z,8.93
2023-04-16T02:39:46.879Z,8.96
2023-04-16T02:40:46.881Z,8.93
2023-04-16T02:41:46.925Z,8.94
2023-04-16T02:42:46.937Z,8.94
2023-04-16T02:43:47.017Z,8.96
2023-04-16T02:44:47.007Z,8.90
2023-04-16T02:45:46.950Z,8.96
2023-04-16T02:46:46.898Z,8.91
2023-04-16T02:47:46.989Z,8.91
2023-04-16T02:48:46.865Z,8.91
2023-04-16T02:49:46.724Z,8.93
2023-04-16T02:50:46.747Z,8.90
2023-04-16T02:51:46.833Z,8.88
2023-04-16T02:52:46.830Z,8.90
2023-04-16T02:53:46.884Z,8.93
2023-04-16T02:54:46.791Z,8.90
2023-04-16T02:55:46.785Z,8.90
2023-04-16T02:56:46.780Z,8.91
2023-04-16T02:57:46.767Z,8.91
2023-04-16T02:58:46.757Z,8.88
2023-04-16T02:59:46.819Z,8.87
2023-04-16T03:00:46.730Z,8.86
2023-04-16T03:01:46.804Z,8.86
2023-04-16T03:02:46.831Z,8.93
2023-04-16T03:03:46.764Z,8.88
2023-04-16T03:04:46.832Z,8.90
2023-04-16T03:05:46.717Z,8.90
2023-04-16T03:06:46.700Z,8.87
2023-04-16T03:07:46.685Z,8.86
2023-04-16T03:08:46.689Z,8.88
2023-04-16T03:09:46.664Z,8.87
2023-04-16T03:10:46.734Z,8.87
2023-04-16T03:11:46.556Z,8.88
2023-04-16T03:12:46.614Z,8.86
2023-04-16T03:13:46.442Z,8.86
2023-04-16T03:14:46.692Z,8.87
2023-04-16T03:15:46.618Z,8.88
2023-04-16T03:16:46.699Z,8.86
2023-04-16T03:17:46.589Z,8.87
2023-04-16T03:18:46.629Z,8.83
2023-04-16T03:19:46.543Z,8.81
2023-04-16T03:20:46.530Z,8.84
2023-04-16T03:21:46.543Z,8.86
2023-04-16T03:22:46.616Z,8.79
2023-04-16T03:23:46.518Z,8.83
2023-04-16T03:24:46.510Z,8.83
2023-04-16T03:25:46.516Z,8.87
2023-04-16T03:26:46.569Z,8.83
2023-04-16T03:27:46.482Z,8.84
2023-04-16T03:28:46.538Z,8.79
2023-04-16T03:29:46.450Z,8.86
2023-04-16T03:30:46.488Z,8.79
2023-04-16T03:31:46.461Z,8.83
2023-04-16T03:32:46.482Z,8.83
2023-04-16T03:33:46.365Z,8.78
2023-04-16T03:34:46.405Z,8.81
2023-04-16T03:35:46.330Z,8.76
2023-04-16T03:36:46.353Z,8.81
2023-04-16T03:37:46.393Z,8.75
2023-04-16T03:38:46.375Z,8.73
2023-04-16T03:39:46.339Z,8.72
2023-04-16T03:40:46.362Z,8.71
2023-04-16T03:41:46.386Z,8.73
2023-04-16T03:42:46.312Z,8.71
2023-04-16T03:43:46.310Z,8.69
2023-04-16T03:44:46.305Z,8.62
2023-04-16T03:45:46.316Z,8.65
2023-04-16T03:46:46.311Z,8.63
2023-04-16T03:47:46.360Z,8.65
2023-04-16T03:48:46.253Z,8.58
2023-04-16T03:49:46.132Z,8.60
2023-04-16T03:50:46.335Z,8.58
2023-04-16T03:51:46.257Z,8.55
2023-04-16T03:52:46.179Z,8.60
2023-04-16T03:53:46.174Z,8.57
2023-04-16T03:54:46.237Z,8.62
2023-04-16T03:55:46.145Z,8.58
2023-04-16T03:56:46.132Z,8.57
2023-04-16T03:57:46.205Z,8.60
2023-04-16T03:58:46.085Z,8.58
2023-04-16T03:59:46.235Z,8.57
2023-04-16T04:00:46.133Z,8.60
2023-04-16T04:01:46.166Z,8.60
2023-04-16T04:02:46.308Z,8.60
2023-04-16T04:03:46.287Z,8.55
2023-04-16T04:04:46.094Z,8.53
2023-04-16T04:05:46.059Z,8.51
2023-04-16T04:06:45.988Z,8.53
2023-04-16T04:07:46.005Z,8.48
2023-04-16T04:08:46.016Z,8.53
2023-04-16T04:09:46.087Z,8.50
2023-04-16T04:10:46.062Z,8.51
2023-04-16T04:11:45.958Z,8.54
2023-04-16T04:12:45.961Z,8.47
2023-04-16T04:13:45.956Z,8.50
2023-04-16T04:14:45.787Z,8.54
2023-04-16T04:15:46.023Z,8.48
2023-04-16T04:16:46.069Z,8.50
2023-04-16T04:17:45.782Z,8.53
2023-04-16T04:18:45.930Z,8.51
2023-04-16T04:20:00.095Z,8.53
2023-04-16T04:20:45.908Z,8.48
2023-04-16T04:21:45.894Z,8.48
2023-04-16T04:22:45.960Z,8.50
2023-04-16T04:23:45.861Z,8.48
2023-04-16T04:24:45.846Z,8.45
2023-04-16T04:25:45.693Z,8.48
2023-04-16T04:26:45.874Z,8.44
2023-04-16T04:27:45.760Z,8.42
2023-04-16T04:28:45.816Z,8.44
2023-04-16T04:29:45.783Z,8.44
2023-04-16T04:30:45.767Z,8.45
2023-04-16T04:31:45.808Z,8.45
2023-04-16T04:32:45.756Z,8.42
2023-04-16T04:33:45.696Z,8.36
2023-04-16T04:34:45.736Z,8.36
2023-04-16T04:35:45.700Z,8.32
2023-04-16T04:36:45.843Z,8.35
2023-04-16T04:37:45.653Z,8.33
2023-04-16T04:38:45.645Z,8.28
2023-04-16T04:39:45.639Z,8.28
2023-04-16T04:40:45.635Z,8.25
2023-04-16T04:41:45.626Z,8.22
2023-04-16T04:42:45.486Z,8.17
2023-04-16T04:43:45.632Z,8.14
2023-04-16T04:44:45.722Z,8.18
2023-04-16T04:45:45.600Z,8.15
2023-04-16T04:46:45.606Z,8.11
2023-04-16T04:47:45.709Z,8.14
2023-04-16T04:48:45.669Z,8.14
2023-04-16T04:49:45.574Z,8.14
2023-04-16T04:50:45.586Z,8.12
2023-04-16T04:51:45.517Z,8.11
2023-04-16T04:52:45.619Z,8.15
2023-04-16T04:53:45.489Z,8.15
2023-04-16T04:54:45.375Z,8.17
2023-04-16T04:55:45.534Z,8.17
2023-04-16T04:56:45.359Z,8.17
2023-04-16T04:57:45.378Z,8.17
2023-04-16T04:58:45.460Z,8.15
2023-04-16T04:59:45.460Z,8.20
2023-04-16T05:00:45.323Z,8.17
2023-04-16T05:01:45.452Z,8.15
2023-04-16T05:02:45.382Z,8.18
2023-04-16T05:03:45.357Z,8.17
2023-04-16T05:04:45.306Z,8.17
2023-04-16T05:05:45.300Z,8.18
2023-04-16T05:06:45.406Z,8.18
2023-04-16T05:07:45.322Z,8.17
2023-04-16T05:08:45.218Z,8.17
2023-04-16T05:09:45.479Z,8.17
2023-04-16T05:10:45.250Z,8.18
2023-04-16T05:11:45.209Z,8.18
2023-04-16T05:12:45.162Z,8.18
2023-04-16T05:13:45.330Z,8.15
2023-04-16T05:14:45.387Z,8.11
2023-04-16T05:15:45.302Z,8.15
2023-04-16T05:16:45.249Z,8.10
2023-04-16T05:17:45.368Z,8.08
2023-04-16T05:18:45.117Z,8.11
2023-04-16T05:19:45.226Z,8.08
2023-04-16T05:20:45.352Z,8.07
2023-04-16T05:21:45.197Z,7.97
2023-04-16T05:22:45.246Z,7.97
2023-04-16T05:23:45.252Z,7.99
2023-04-16T05:24:45.064Z,7.96
2023-04-16T05:25:45.262Z,7.97
2023-04-16T05:26:45.195Z,7.96
2023-04-16T05:27:45.190Z,7.97
2023-04-16T05:28:45.035Z,7.92
2023-04-16T05:29:45.057Z,7.94
2023-04-16T05:30:45.060Z,7.93
2023-04-16T05:31:45.159Z,8.00
2023-04-16T05:32:45.148Z,7.97
2023-04-16T05:33:45.229Z,8.03
2023-04-16T05:34:45.205Z,7.99
2023-04-16T05:35:45.055Z,7.96
2023-04-16T05:36:45.032Z,8.07
2023-04-16T05:37:45.142Z,8.02
2023-04-16T05:38:45.034Z,8.03
2023-04-16T05:39:45.034Z,8.00
2023-04-16T05:40:45.128Z,8.03
2023-04-16T05:41:44.982Z,7.99
2023-04-16T05:42:44.931Z,8.02
2023-04-16T05:43:44.968Z,8.03
2023-04-16T05:44:44.969Z,8.04
2023-04-16T05:45:45.072Z,8.04
2023-04-16T05:46:44.923Z,8.03
2023-04-16T05:47:45.027Z,7.99
2023-04-16T05:48:44.964Z,7.97
2023-04-16T05:49:44.963Z,7.99
2023-04-16T05:50:44.892Z,7.97
2023-04-16T05:51:44.966Z,7.94
2023-04-16T05:52:44.886Z,7.97
2023-04-16T05:53:44.883Z,7.96
2023-04-16T05:54:44.767Z,7.96
2023-04-16T05:55:44.871Z,7.93
2023-04-16T05:56:44.876Z,7.92
2023-04-16T05:57:44.793Z,7.93
2023-04-16T05:58:44.685Z,7.89
2023-04-16T05:59:45.005Z,7.85
2023-04-16T06:00:44.707Z,7.87
2023-04-16T06:01:44.619Z,7.84
2023-04-16T06:02:45.033Z,7.81
2023-04-16T06:03:44.828Z,7.81
2023-04-16T06:04:44.643Z,7.79
2023-04-16T06:05:44.843Z,7.78
2023-04-16T06:06:44.685Z,7.79
2023-04-16T06:07:44.658Z,7.78
2023-04-16T06:08:44.590Z,7.79
2023-04-16T06:09:44.587Z,7.78
2023-04-16T06:10:44.537Z,7.84
2023-04-16T06:11:44.548Z,7.82
2023-04-16T06:12:44.538Z,7.84
2023-04-16T06:13:44.596Z,7.89
2023-04-16T06:14:44.635Z,7.85
2023-04-16T06:15:44.585Z,7.89
2023-04-16T06:16:44.561Z,7.82
2023-04-16T06:17:44.639Z,7.84
2023-04-16T06:18:44.579Z,7.85
2023-04-16T06:19:44.590Z,7.89
2023-04-16T06:20:44.692Z,7.82
2023-04-16T06:21:44.603Z,7.85
2023-04-16T06:22:44.614Z,7.90
2023-04-16T06:23:44.577Z,7.89
2023-04-16T06:24:44.640Z,7.89
2023-04-16T06:25:44.569Z,7.89
2023-04-16T06:26:44.635Z,7.92
2023-04-16T06:27:44.631Z,7.87
2023-04-16T06:28:44.561Z,7.87
2023-04-16T06:29:44.419Z,7.87
2023-04-16T06:30:44.901Z,7.85
2023-04-16T06:31:44.619Z,7.84
2023-04-16T06:32:44.666Z,7.89
2023-04-16T06:33:44.450Z,7.89
2023-04-16T06:34:44.458Z,7.92
2023-04-16T06:35:44.567Z,7.93
2023-04-16T06:36:44.457Z,7.89
2023-04-16T06:37:44.453Z,7.87
2023-04-16T06:38:44.464Z,7.93
2023-04-16T06:39:44.556Z,7.90
2023-04-16T06:40:44.436Z,7.89
2023-04-16T06:41:44.375Z,7.90
2023-04-16T06:42:45.667Z,7.90
2023-04-16T06:43:44.272Z,7.92
2023-04-16T06:44:44.364Z,7.96
2023-04-16T06:45:44.204Z,7.90
2023-04-16T06:46:44.278Z,7.92
2023-04-16T06:47:44.322Z,7.90
2023-04-16T06:48:44.190Z,7.87
2023-04-16T06:49:44.307Z,7.90
2023-04-16T06:50:44.252Z,7.89
2023-04-16T06:51:44.254Z,7.90
2023-04-16T06:52:44.257Z,7.92
2023-04-16T06:53:44.332Z,7.97
2023-04-16T06:54:44.238Z,7.97
2023-04-16T06:55:44.211Z,7.96
2023-04-16T06:56:44.199Z,7.97
2023-04-16T06:57:44.282Z,7.99
2023-04-16T06:58:44.200Z,7.97
2023-04-16T06:59:44.214Z,7.99
2023-04-16T07:00:44.120Z,7.97
2023-04-16T07:01:44.272Z,7.97
2023-04-16T07:02:44.379Z,7.99
2023-04-16T07:03:44.183Z,7.99
2023-04-16T07:04:43.976Z,8.03
2023-04-16T07:05:44.139Z,8.03
2023-04-16T07:06:43.987Z,8.07
2023-04-16T07:07:44.194Z,8.07
2023-04-16T07:08:43.981Z,8.07
2023-04-16T07:09:43.968Z,8.11
2023-04-16T07:10:43.915Z,8.07
2023-04-16T07:11:44.085Z,8.12
2023-04-16T07:12:44.099Z,8.17
2023-04-16T07:13:43.925Z,8.18
2023-04-16T07:14:43.937Z,8.20
2023-04-16T07:15:43.935Z,8.26
2023-04-16T07:16:43.988Z,8.26
2023-04-16T07:17:44.089Z,8.26
2023-04-16T07:18:44.124Z,8.28
2023-04-16T07:19:43.973Z,8.32
2023-04-16T07:20:43.875Z,8.33
2023-04-16T07:21:43.981Z,8.30
2023-04-16T07:22:44.032Z,8.37
2023-04-16T07:23:44.067Z,8.39
2023-04-16T07:24:43.943Z,8.42
2023-04-16T07:25:44.572Z,8.47
2023-04-16T07:26:43.939Z,8.47
2023-04-16T07:27:43.744Z,8.50
2023-04-16T07:28:43.908Z,8.50
2023-04-16T07:29:43.918Z,8.51
2023-04-16T07:30:43.865Z,8.54
2023-04-16T07:31:43.968Z,8.65
2023-04-16T07:32:43.968Z,8.65
2023-04-16T07:33:43.855Z,8.73
2023-04-16T07:34:43.818Z,8.63
2023-04-16T07:35:43.824Z,8.69
2023-04-16T07:36:43.695Z,8.75
2023-04-16T07:37:43.853Z,8.76
2023-04-16T07:38:43.747Z,8.87
2023-04-16T07:39:43.735Z,8.86
2023-04-16T07:40:43.875Z,8.94
2023-04-16T07:41:43.687Z,8.97
2023-04-16T07:42:43.740Z,9.04
2023-04-16T07:43:43.732Z,9.09
2023-04-16T07:44:43.715Z,9.15
2023-04-16T07:45:43.720Z,9.27
2023-04-16T07:46:47.313Z,9.32
2023-04-16T07:47:43.724Z,9.38
2023-04-16T07:48:43.725Z,9.38
2023-04-16T07:49:43.706Z,9.35
2023-04-16T07:50:43.774Z,9.42
2023-04-16T07:51:43.710Z,9.35
2023-04-16T07:52:43.684Z,9.39
2023-04-16T07:53:43.510Z,9.38
2023-04-16T07:54:43.717Z,9.34
2023-04-16T07:55:43.687Z,9.32
2023-04-16T07:56:43.833Z,9.28
2023-04-16T07:57:43.695Z,9.20
2023-04-16T07:58:43.583Z,9.15
2023-04-16T07:59:43.640Z,9.09
2023-04-16T08:00:43.576Z,9.12
2023-04-16T08:01:43.550Z,9.06
2023-04-16T08:02:43.823Z,9.09
2023-04-16T08:03:43.877Z,9.10
2023-04-16T08:04:43.937Z,9.09
2023-04-16T08:05:43.362Z,9.09
2023-04-16T08:06:43.586Z,9.12
2023-04-16T08:07:43.637Z,9.15
2023-04-16T08:08:43.649Z,9.15
2023-04-16T08:09:43.496Z,9.15
2023-04-16T08:10:43.475Z,9.21
2023-04-16T08:11:43.471Z,9.24
2023-04-16T08:12:43.610Z,9.23
2023-04-16T08:13:43.533Z,9.23
2023-04-16T08:14:43.325Z,9.24
2023-04-16T08:15:43.573Z,9.27
2023-04-16T08:16:43.508Z,9.27
2023-04-16T08:17:43.569Z,9.34
2023-04-16T08:18:43.577Z,9.40
2023-04-16T08:19:43.462Z,9.45
2023-04-16T08:20:43.237Z,9.46
2023-04-16T08:21:43.218Z,9.43
2023-04-16T08:22:43.364Z,9.52
2023-04-16T08:23:43.241Z,9.53
2023-04-16T08:24:43.307Z,9.73
2023-04-16T08:25:43.474Z,9.76
2023-04-16T08:26:43.378Z,9.70
2023-04-16T08:27:43.346Z,9.82
2023-04-16T08:28:43.392Z,9.83
2023-04-16T08:29:43.274Z,9.86
2023-04-16T08:30:43.249Z,9.97
2023-04-16T08:31:43.281Z,9.96
2023-04-16T08:32:43.301Z,10.06
2023-04-16T08:33:43.320Z,10.04
2023-04-16T08:34:43.299Z,10.09
2023-04-16T08:35:43.225Z,10.15
2023-04-16T08:36:43.071Z,10.19
2023-04-16T08:37:43.210Z,10.18
2023-04-16T08:38:43.190Z,10.18
2023-04-16T08:39:43.261Z,10.26
2023-04-16T08:40:43.157Z,10.22
2023-04-16T08:41:43.139Z,10.17
2023-04-16T08:42:43.187Z,10.12
2023-04-16T08:43:43.175Z,10.12
2023-04-16T08:44:43.234Z,10.15
2023-04-16T08:45:43.131Z,10.09
2023-04-16T08:46:43.142Z,10.10
2023-04-16T08:47:43.125Z,10.10
2023-04-16T08:48:43.113Z,10.14
2023-04-16T08:49:43.175Z,10.10
2023-04-16T08:50:43.148Z,10.07
2023-04-16T08:51:43.135Z,10.09
2023-04-16T08:52:43.032Z,10.12
2023-04-16T08:53:42.996Z,10.01
2023-04-16T08:54:43.049Z,10.07
2023-04-16T08:55:43.011Z,10.06
2023-04-16T08:56:43.325Z,10.04
2023-04-16T08:57:42.886Z,10.07
2023-04-16T08:58:42.974Z,10.07
2023-04-16T08:59:42.962Z,10.12
2023-04-16T09:00:42.993Z,10.15
2023-04-16T09:01:43.000Z,10.21
2023-04-16T09:02:43.171Z,10.22
2023-04-16T09:03:43.063Z,10.26
2023-04-16T09:04:43.261Z,10.22
2023-04-16T09:05:42.805Z,10.32
2023-04-16T09:06:42.842Z,10.34
2023-04-16T09:07:42.881Z,10.36
2023-04-16T09:08:42.894Z,10.39
2023-04-16T09:09:42.889Z,10.37
2023-04-16T09:10:42.884Z,10.43
2023-04-16T09:11:42.744Z,10.47
2023-04-16T09:12:42.665Z,10.51
2023-04-16T09:13:42.735Z,10.63
2023-04-16T09:14:42.792Z,10.68
2023-04-16T09:15:42.803Z,10.70
2023-04-16T09:16:42.825Z,10.76
2023-04-16T09:17:42.862Z,10.76
2023-04-16T09:18:42.754Z,10.78
2023-04-16T09:19:42.742Z,10.83
2023-04-16T09:20:42.599Z,10.73
2023-04-16T09:21:42.719Z,10.83
2023-04-16T09:22:42.635Z,10.81
2023-04-16T09:23:42.789Z,10.91
2023-04-16T09:24:42.777Z,10.94
2023-04-16T09:25:42.624Z,10.99
2023-04-16T09:26:42.708Z,11.06
2023-04-16T09:27:42.694Z,11.01
2023-04-16T09:28:42.765Z,11.14
2023-04-16T09:29:42.579Z,11.16
2023-04-16T09:30:42.611Z,11.20
2023-04-16T09:31:42.619Z,11.27
2023-04-16T09:32:42.672Z,11.20
2023-04-16T09:33:42.693Z,11.17
2023-04-16T09:34:42.514Z,11.13
2023-04-16T09:35:42.518Z,11.09
2023-04-16T09:36:42.413Z,11.07
2023-04-16T09:37:42.418Z,11.07
2023-04-16T09:38:42.457Z,11.06
2023-04-16T09:39:42.359Z,10.98
2023-04-16T09:40:42.465Z,10.98
2023-04-16T09:41:42.348Z,10.92
2023-04-16T09:42:42.410Z,10.88
2023-04-16T09:43:42.377Z,10.80
2023-04-16T09:44:42.357Z,10.76
2023-04-16T09:45:42.418Z,10.81
2023-04-16T09:46:42.393Z,10.71
2023-04-16T09:47:42.362Z,10.77
2023-04-16T09:48:42.448Z,10.74
2023-04-16T09:49:42.275Z,10.68
2023-04-16T09:50:42.333Z,10.70
2023-04-16T09:51:42.315Z,10.80
2023-04-16T09:52:42.269Z,10.73
2023-04-16T09:53:42.324Z,10.76
2023-04-16T09:54:42.299Z,10.73
2023-04-16T09:55:42.322Z,10.71
2023-04-16T09:56:42.280Z,10.78
2023-04-16T09:57:42.355Z,10.76
2023-04-16T09:58:42.428Z,10.65
2023-04-16T09:59:42.335Z,10.68
2023-04-16T10:00:43.674Z,10.63
2023-04-16T10:01:42.442Z,10.56
2023-04-16T10:02:42.757Z,10.59
2023-04-16T10:03:42.484Z,10.53
2023-04-16T10:04:42.294Z,10.53
2023-04-16T10:05:42.274Z,10.51
2023-04-16T10:06:42.297Z,10.60
2023-04-16T10:07:42.129Z,10.55
2023-04-16T10:08:42.056Z,10.53
2023-04-16T10:09:42.105Z,10.63
2023-04-16T10:10:42.127Z,10.76
2023-04-16T10:11:42.183Z,10.80
2023-04-16T10:12:42.222Z,10.91
2023-04-16T10:13:42.135Z,10.99
2023-04-16T10:14:42.050Z,11.11
2023-04-16T10:15:42.183Z,11.24
2023-04-16T10:16:42.021Z,11.21
2023-04-16T10:17:41.992Z,11.29
2023-04-16T10:18:42.117Z,11.39
2023-04-16T10:19:42.109Z,11.39
2023-04-16T10:20:42.002Z,11.46
2023-04-16T10:21:42.076Z,11.46
2023-04-16T10:22:42.140Z,11.43
2023-04-16T10:23:42.046Z,11.52
2023-04-16T10:24:42.055Z,11.54
2023-04-16T10:25:42.031Z,11.62
2023-04-16T10:26:42.036Z,11.61
2023-04-16T10:27:42.015Z,11.67
2023-04-16T10:28:42.089Z,11.72
2023-04-16T10:29:42.015Z,11.72
2023-04-16T10:30:42.025Z,11.67
2023-04-16T10:31:42.008Z,11.67
2023-04-16T10:32:42.050Z,11.67
2023-04-16T10:33:41.950Z,11.57
2023-04-16T10:34:41.886Z,11.52
2023-04-16T10:35:41.796Z,11.49
2023-04-16T10:36:41.956Z,11.43
2023-04-16T10:37:41.957Z,11.39
2023-04-16T10:38:41.840Z,11.38
2023-04-16T10:39:41.832Z,11.39
2023-04-16T10:40:41.819Z,11.52
2023-04-16T10:41:41.702Z,11.56
2023-04-16T10:42:41.757Z,11.62
2023-04-16T10:43:41.788Z,11.68
2023-04-16T10:44:45.012Z,11.57
2023-04-16T10:45:41.668Z,11.67
2023-04-16T10:46:41.852Z,11.61
2023-04-16T10:47:41.859Z,11.67
2023-04-16T10:48:49.591Z,11.68
2023-04-16T10:49:41.831Z,11.82
2023-04-16T10:50:41.809Z,11.87
2023-04-16T10:51:41.816Z,11.90
2023-04-16T10:52:41.783Z,11.90
2023-04-16T10:53:41.707Z,11.97
2023-04-16T10:54:41.796Z,11.89
2023-04-16T10:55:41.727Z,11.90
2023-04-16T10:56:41.888Z,12.04
2023-04-16T10:57:41.717Z,11.97
2023-04-16T10:58:41.722Z,12.06
2023-04-16T10:59:41.793Z,12.06
2023-04-16T11:00:41.805Z,12.08
2023-04-16T11:01:41.798Z,12.13
2023-04-16T11:02:41.824Z,12.09
2023-04-16T11:03:41.595Z,12.09
2023-04-16T11:04:41.603Z,12.04
2023-04-16T11:05:41.551Z,12.06
2023-04-16T11:06:41.581Z,12.02
2023-04-16T11:07:41.445Z,11.93
2023-04-16T11:08:53.857Z,11.85
2023-04-16T11:09:41.469Z,11.82
2023-04-16T11:10:41.504Z,11.71
2023-04-16T11:11:41.427Z,11.65
2023-04-16T11:12:41.439Z,11.64
2023-04-16T11:13:43.497Z,11.62
2023-04-16T11:14:41.434Z,11.67
2023-04-16T11:15:41.397Z,11.53
2023-04-16T11:16:41.425Z,11.59
2023-04-16T11:17:41.441Z,11.54
2023-04-16T11:18:41.623Z,11.46
2023-04-16T11:19:41.521Z,11.47
2023-04-16T11:20:41.494Z,11.47
2023-04-16T11:21:41.483Z,11.52
2023-04-16T11:22:41.444Z,11.53
2023-04-16T11:23:41.482Z,11.54
2023-04-16T11:24:41.435Z,11.49
2023-04-16T11:25:41.401Z,11.43
2023-04-16T11:26:41.374Z,11.46
2023-04-16T11:27:41.348Z,11.46
2023-04-16T11:28:41.256Z,11.56
2023-04-16T11:29:41.387Z,11.54
2023-04-16T11:30:41.375Z,11.54
2023-04-16T11:31:41.986Z,11.62
2023-04-16T11:32:41.245Z,11.53
2023-04-16T11:33:41.220Z,11.59
2023-04-16T11:34:41.195Z,11.62
2023-04-16T11:35:41.238Z,11.70
2023-04-16T11:36:41.300Z,11.67
2023-04-16T11:37:41.169Z,11.68
2023-04-16T11:38:41.194Z,11.70
2023-04-16T11:39:41.241Z,11.67
2023-04-16T11:40:41.334Z,11.59
2023-04-16T11:41:41.256Z,11.61
2023-04-16T11:42:41.243Z,11.52
2023-04-16T11:43:41.272Z,11.56
2023-04-16T11:44:41.191Z,11.56
2023-04-16T11:45:41.096Z,11.57
2023-04-16T11:46:41.285Z,11.56
2023-04-16T11:47:41.275Z,11.57
2023-04-16T11:48:41.174Z,11.50
2023-04-16T11:49:41.155Z,11.47
2023-04-16T11:50:41.230Z,11.39
2023-04-16T11:51:41.185Z,11.35
2023-04-16T11:52:41.095Z,11.38
2023-04-16T11:53:41.110Z,11.39
2023-04-16T11:54:41.137Z,11.41
2023-04-16T11:55:41.081Z,11.36
2023-04-16T11:56:40.922Z,11.38
2023-04-16T11:57:41.117Z,11.41
2023-04-16T11:58:43.249Z,11.41
2023-04-16T12:00:01.524Z,11.39
2023-04-16T12:00:41.157Z,11.38
2023-04-16T12:01:40.954Z,11.34
2023-04-16T12:02:41.229Z,11.34
2023-04-16T12:03:41.191Z,11.34
2023-04-16T12:04:41.065Z,11.27
2023-04-16T12:05:40.977Z,11.34
2023-04-16T12:06:41.026Z,11.32
2023-04-16T12:07:41.013Z,11.38
2023-04-16T12:08:40.974Z,11.34
2023-04-16T12:09:41.207Z,11.38
2023-04-16T12:10:40.834Z,11.29
2023-04-16T12:11:40.713Z,11.28
2023-04-16T12:12:40.784Z,11.25
2023-04-16T12:13:40.761Z,11.19
2023-04-16T12:14:40.766Z,11.16
2023-04-16T12:15:40.718Z,11.19
2023-04-16T12:16:40.876Z,11.11
2023-04-16T12:17:40.719Z,11.14
2023-04-16T12:18:40.711Z,11.10
2023-04-16T12:19:40.710Z,11.10
2023-04-16T12:20:40.781Z,11.13
2023-04-16T12:21:40.717Z,11.16
2023-04-16T12:22:40.785Z,11.16
2023-04-16T12:23:40.740Z,11.14
2023-04-16T12:24:40.615Z,11.17
2023-04-16T12:25:40.681Z,11.16
2023-04-16T12:26:40.681Z,11.11
2023-04-16T12:27:40.716Z,11.09
2023-04-16T12:28:40.725Z,11.09
2023-04-16T12:29:40.638Z,11.07
2023-04-16T12:30:40.604Z,11.11
2023-04-16T12:31:40.580Z,11.16
2023-04-16T12:32:40.574Z,11.14
2023-04-16T12:33:40.752Z,11.10
2023-04-16T12:34:49.059Z,11.14
2023-04-16T12:35:40.529Z,11.13
2023-04-16T12:36:40.660Z,11.13
2023-04-16T12:37:40.486Z,11.13
2023-04-16T12:38:40.492Z,11.16
2023-04-16T12:39:40.504Z,11.13
2023-04-16T12:40:40.489Z,11.09
2023-04-16T12:41:40.453Z,11.16
2023-04-16T12:42:40.449Z,11.17
2023-04-16T12:43:40.450Z,11.24
2023-04-16T12:44:40.434Z,11.24
2023-04-16T12:45:40.471Z,11.31
2023-04-16T12:46:40.476Z,11.32
2023-04-16T12:47:40.524Z,11.44
2023-04-16T12:48:40.339Z,11.53
2023-04-16T12:49:40.672Z,11.70
2023-04-16T12:50:40.584Z,11.67
2023-04-16T12:51:40.442Z,11.77
2023-04-16T12:52:40.546Z,11.85
2023-04-16T12:53:40.347Z,11.90
2023-04-16T12:54:40.273Z,11.96
2023-04-16T12:55:40.320Z,11.96
2023-04-16T12:56:40.298Z,11.99
2023-04-16T12:57:40.382Z,12.08
2023-04-16T12:58:40.263Z,12.16
2023-04-16T12:59:40.458Z,12.20
2023-04-16T13:00:40.219Z,12.16
2023-04-16T13:01:40.422Z,12.16
2023-04-16T13:02:40.597Z,12.11
2023-04-16T13:03:40.391Z,12.08
2023-04-16T13:04:40.286Z,12.05
2023-04-16T13:05:40.169Z,12.02
2023-04-16T13:06:40.405Z,12.13
2023-04-16T13:07:40.312Z,12.12
2023-04-16T13:08:40.169Z,12.08
2023-04-16T13:09:40.257Z,12.02